Airport View

Enter AWOS ICAO identifier for current METAR.

ex. KFNL

KVRB 080253Z AUTO 23005KT 10SM CLR 27/23 A3005 RMK AO2 SLP174 T02670228 53004

8 Jul 2020 03:17

Phone: 772-978-9535

Other Area AWOS: KMLB - KFPR - KSUA - KOBE

TAF KVRB 072341Z 0800/0824 14007KT P6SM SCT035 SCT120 BKN250 FM080200 VRB04KT P6SM FEW120 SCT250 FM081400 26005KT P6SM SCT030 SCT250 FM081700 23009KT P6SM VCTS SCT035CB BKN060 TEMPO 0819/0822 VRB15G25KT 2SM TSRA BKN025CB BKN050 FM082200 25007KT P6SM VCSH SCT035 SCT100 BKN250